Time;durP1;ratioP1;P1;durP2;ratioP2;P2;SDS_P1;SDS_P2;PMS_P1;PMS_P2;Temp;Humidity;BMP_temperature;BMP_pressure;BME280_temperature;BME280_humidity;BME280_pressure;Samples;Min_cycle;Max_cycle;Signal;HPM_P1;HPM_P2
2023/05/18 00:01:59;;;;;;;12.13;5.47;;;;;;;;;;5042373;28;20522;-59
2023/05/18 00:04:25;;;;;;;17.60;5.10;;;;;;;;;;5036276;28;20056;-59
2023/05/18 00:07:02;;;;;;;15.88;5.13;;;;;;;;;;5040765;28;20415;-59
2023/05/18 00:09:30;;;;;;;13.05;5.07;;;;;;;;;;5036948;28;20029;-59
2023/05/18 00:11:57;;;;;;;10.00;4.57;;;;;;;;;;5040984;28;20059;-59
2023/05/18 00:14:23;;;;;;;9.95;5.13;;;;;;;;;;5039267;28;20061;-59
2023/05/18 00:16:52;;;;;;;10.32;4.50;;;;;;;;;;5041008;28;20526;-59
2023/05/18 00:19:22;;;;;;;13.35;5.07;;;;;;;;;;5042172;28;20033;-59
2023/05/18 00:21:50;;;;;;;13.32;5.07;;;;;;;;;;5049447;28;20048;-58
2023/05/18 00:24:17;;;;;;;11.07;5.05;;;;;;;;;;5035997;28;20397;-59
2023/05/18 00:26:46;;;;;;;12.52;4.68;;;;;;;;;;5039949;28;20052;-59
2023/05/18 00:29:15;;;;;;;10.73;4.43;;;;;;;;;;5030045;28;20037;-59
2023/05/18 00:31:43;;;;;;;8.75;4.28;;;;;;;;;;5034930;28;20052;-59
2023/05/18 00:34:12;;;;;;;11.98;4.32;;;;;;;;;;5030981;28;20059;-60
2023/05/18 00:36:39;;;;;;;12.10;4.65;;;;;;;;;;5043112;28;20399;-59
2023/05/18 00:39:06;;;;;;;13.75;5.45;;;;;;;;;;5034298;28;20044;-59
2023/05/18 00:41:32;;;;;;;14.25;5.30;;;;;;;;;;5038458;28;20041;-59
2023/05/18 00:43:59;;;;;;;13.52;4.65;;;;;;;;;;5036720;28;20045;-59
2023/05/18 00:46:27;;;;;;;13.52;5.20;;;;;;;;;;5025886;28;20052;-59
2023/05/18 00:48:56;;;;;;;12.98;5.00;;;;;;;;;;5047623;28;20036;-59
2023/05/18 00:51:22;;;;;;;9.32;5.30;;;;;;;;;;5043245;28;20041;-58
2023/05/18 00:53:51;;;;;;;9.23;4.30;;;;;;;;;;5039327;28;20033;-58
2023/05/18 00:56:18;;;;;;;11.20;4.78;;;;;;;;;;5037993;28;20514;-58
2023/05/18 00:58:46;;;;;;;10.70;4.70;;;;;;;;;;5038753;28;20056;-58
2023/05/18 01:01:12;;;;;;;16.40;6.97;;;;;;;;;;5039864;28;20127;-58
2023/05/18 01:03:39;;;;;;;21.02;6.72;;;;;;;;;;5040485;28;20037;-58
2023/05/18 01:06:05;;;;;;;14.38;6.30;;;;;;;;;;5040382;28;20415;-59
2023/05/18 01:08:33;;;;;;;13.40;4.80;;;;;;;;;;5038054;28;20495;-58
2023/05/18 01:11:13;;;;;;;10.27;4.63;;;;;;;;;;5047228;28;20037;-59
2023/05/18 01:14:21;;;;;;;11.32;4.57;;;;;;;;;;5029497;28;20033;-58
2023/05/18 01:16:55;;;;;;;11.75;4.97;;;;;;;;;;5024804;28;20089;-59
2023/05/18 01:19:22;;;;;;;9.10;4.55;;;;;;;;;;5032100;28;20045;-58
2023/05/18 01:22:22;;;;;;;10.65;4.25;;;;;;;;;;5040493;28;20045;-58
2023/05/18 01:25:02;;;;;;;13.73;4.95;;;;;;;;;;5041042;28;20048;-58
2023/05/18 01:27:28;;;;;;;14.32;5.38;;;;;;;;;;5036410;28;20513;-58
2023/05/18 01:29:55;;;;;;;12.57;5.32;;;;;;;;;;5025041;28;20495;-59
2023/05/18 01:32:21;;;;;;;13.20;4.97;;;;;;;;;;5035711;28;20560;-58
2023/05/18 01:34:47;;;;;;;10.35;4.43;;;;;;;;;;5037346;28;20032;-58
2023/05/18 01:37:13;;;;;;;12.50;5.38;;;;;;;;;;5030167;28;20041;-58
2023/05/18 01:39:40;;;;;;;12.40;5.32;;;;;;;;;;5038307;28;20056;-57
2023/05/18 01:42:12;;;;;;;11.77;5.35;;;;;;;;;;5041609;28;20056;-58
2023/05/18 01:44:46;;;;;;;13.25;5.40;;;;;;;;;;5040865;28;20053;-58
2023/05/18 01:47:17;;;;;;;11.80;4.93;;;;;;;;;;5047569;28;20040;-58
2023/05/18 01:49:55;;;;;;;11.02;5.10;;;;;;;;;;5036498;28;20434;-57
2023/05/18 01:52:51;;;;;;;10.18;4.75;;;;;;;;;;5038492;28;20037;-58
2023/05/18 01:55:19;;;;;;;9.23;4.55;;;;;;;;;;5036876;28;20498;-58
2023/05/18 01:57:48;;;;;;;12.57;5.32;;;;;;;;;;5032602;28;20511;-57
2023/05/18 02:00:16;;;;;;;8.65;4.70;;;;;;;;;;5023723;28;20041;-59
2023/05/18 02:02:43;;;;;;;13.25;5.20;;;;;;;;;;5030963;28;20050;-59
2023/05/18 02:05:11;;;;;;;11.10;4.90;;;;;;;;;;5036735;28;20060;-58
2023/05/18 02:07:39;;;;;;;12.63;5.35;;;;;;;;;;5029637;28;20041;-57
2023/05/18 02:10:06;;;;;;;17.95;7.50;;;;;;;;;;5036824;28;20060;-59
2023/05/18 02:12:33;;;;;;;17.38;6.03;;;;;;;;;;5012953;28;20056;-59
2023/05/18 02:15:04;;;;;;;13.07;5.10;;;;;;;;;;5037883;28;20040;-58
2023/05/18 02:17:32;;;;;;;10.60;5.18;;;;;;;;;;5036465;28;20403;-60
2023/05/18 02:19:58;;;;;;;13.30;5.20;;;;;;;;;;5047569;28;20039;-59
2023/05/18 02:22:24;;;;;;;10.65;4.65;;;;;;;;;;5041807;28;20029;-58
2023/05/18 02:24:52;;;;;;;13.07;5.30;;;;;;;;;;5034677;28;20048;-58
2023/05/18 02:27:19;;;;;;;14.43;5.97;;;;;;;;;;5045286;28;20047;-58
2023/05/18 02:29:47;;;;;;;11.43;4.95;;;;;;;;;;5040455;28;20033;-58
2023/05/18 02:32:13;;;;;;;15.10;5.07;;;;;;;;;;5034739;28;20033;-58
2023/05/18 02:34:40;;;;;;;16.90;6.20;;;;;;;;;;5049725;28;20033;-58
2023/05/18 02:37:07;;;;;;;14.82;5.57;;;;;;;;;;5038730;28;20474;-58
2023/05/18 02:39:33;;;;;;;14.38;5.85;;;;;;;;;;5036583;28;20057;-58
2023/05/18 02:41:59;;;;;;;11.70;5.45;;;;;;;;;;5041801;28;20048;-58
2023/05/18 02:44:26;;;;;;;10.95;5.15;;;;;;;;;;5033823;28;20052;-59
2023/05/18 02:46:52;;;;;;;14.00;5.97;;;;;;;;;;5050264;28;20419;-59
2023/05/18 02:49:18;;;;;;;13.05;5.75;;;;;;;;;;5052425;28;20041;-58
2023/05/18 02:51:44;;;;;;;16.48;6.15;;;;;;;;;;5034235;28;20057;-58
2023/05/18 02:54:11;;;;;;;13.80;5.35;;;;;;;;;;5042034;28;20048;-58
2023/05/18 02:56:40;;;;;;;17.88;6.30;;;;;;;;;;5045100;28;20047;-58
2023/05/18 02:59:32;;;;;;;15.63;5.70;;;;;;;;;;5039629;28;20407;-58
2023/05/18 03:01:59;;;;;;;16.55;6.43;;;;;;;;;;5041366;28;20522;-59
2023/05/18 03:04:25;;;;;;;14.50;6.38;;;;;;;;;;5023372;28;20164;-58
2023/05/18 03:06:56;;;;;;;14.30;6.20;;;;;;;;;;5047925;28;20041;-57
2023/05/18 03:09:22;;;;;;;15.90;5.45;;;;;;;;;;5043088;28;20041;-58
2023/05/18 03:11:52;;;;;;;17.15;6.30;;;;;;;;;;5041101;28;20495;-58
2023/05/18 03:14:18;;;;;;;17.55;6.10;;;;;;;;;;5036310;28;20033;-58
2023/05/18 03:16:44;;;;;;;14.73;6.18;;;;;;;;;;5037071;28;20041;-58
2023/05/18 03:19:14;;;;;;;17.35;6.38;;;;;;;;;;5030925;28;20053;-58
2023/05/18 03:21:41;;;;;;;19.40;6.20;;;;;;;;;;5015742;28;20045;-57
2023/05/18 03:24:08;;;;;;;19.17;6.57;;;;;;;;;;5045078;28;20521;-59
2023/05/18 03:26:38;;;;;;;22.00;6.03;;;;;;;;;;5043870;28;20049;-58
2023/05/18 03:29:04;;;;;;;14.23;5.95;;;;;;;;;;5031713;28;20040;-58
2023/05/18 03:31:31;;;;;;;14.38;5.93;;;;;;;;;;5031871;28;20044;-58
2023/05/18 03:33:59;;;;;;;15.27;6.05;;;;;;;;;;5040488;28;20045;-58
2023/05/18 03:36:26;;;;;;;14.07;6.07;;;;;;;;;;5031512;28;20040;-58
2023/05/18 03:38:53;;;;;;;16.77;6.50;;;;;;;;;;5041950;28;20045;-58
2023/05/18 03:41:20;;;;;;;20.33;6.80;;;;;;;;;;5031280;28;20045;-58
2023/05/18 03:43:47;;;;;;;20.50;7.05;;;;;;;;;;5041999;28;20052;-58
2023/05/18 03:46:13;;;;;;;17.40;6.90;;;;;;;;;;5043994;28;20029;-58
2023/05/18 03:48:39;;;;;;;16.15;6.40;;;;;;;;;;5049826;28;20041;-57
2023/05/18 03:51:06;;;;;;;14.50;6.80;;;;;;;;;;5035492;28;20456;-58
2023/05/18 03:53:35;;;;;;;15.57;6.45;;;;;;;;;;5045537;28;20033;-58
2023/05/18 03:56:01;;;;;;;15.25;6.25;;;;;;;;;;5036182;28;20080;-58
2023/05/18 03:58:28;;;;;;;13.50;6.65;;;;;;;;;;5049089;28;20048;-58
2023/05/18 04:00:54;;;;;;;16.55;6.18;;;;;;;;;;5023010;28;20120;-58
2023/05/18 04:03:23;;;;;;;17.65;6.70;;;;;;;;;;5040653;28;20041;-58
2023/05/18 04:05:52;;;;;;;15.50;6.65;;;;;;;;;;5038921;28;20052;-57
2023/05/18 04:08:24;;;;;;;15.00;6.97;;;;;;;;;;5042235;28;20045;-58
2023/05/18 04:10:51;;;;;;;15.85;6.40;;;;;;;;;;5030844;28;20492;-60
2023/05/18 04:13:18;;;;;;;19.88;6.95;;;;;;;;;;5040054;28;20060;-59
2023/05/18 04:15:44;;;;;;;20.73;7.35;;;;;;;;;;5021689;28;20052;-58
2023/05/18 04:18:12;;;;;;;15.40;7.13;;;;;;;;;;5032803;28;20431;-58
2023/05/18 04:20:40;;;;;;;21.35;8.30;;;;;;;;;;5039422;28;20037;-58
2023/05/18 04:23:08;;;;;;;16.30;7.95;;;;;;;;;;5043870;28;20044;-59
2023/05/18 04:25:35;;;;;;;18.65;7.53;;;;;;;;;;5035388;28;20566;-59
2023/05/18 04:28:01;;;;;;;19.48;7.90;;;;;;;;;;5047498;28;20041;-58
2023/05/18 04:30:28;;;;;;;15.05;7.07;;;;;;;;;;5029931;28;20033;-58
2023/05/18 04:32:56;;;;;;;16.17;7.35;;;;;;;;;;5041557;28;20116;-59
2023/05/18 04:35:24;;;;;;;17.27;7.40;;;;;;;;;;5043476;28;20048;-59
2023/05/18 04:37:53;;;;;;;18.77;7.65;;;;;;;;;;5031059;28;20041;-58
2023/05/18 04:40:19;;;;;;;20.48;8.15;;;;;;;;;;5031411;28;20495;-59
2023/05/18 04:42:47;;;;;;;21.88;7.72;;;;;;;;;;5043693;28;20041;-59
2023/05/18 04:45:19;;;;;;;19.63;7.95;;;;;;;;;;5042234;28;20064;-58
2023/05/18 04:47:47;;;;;;;20.75;8.32;;;;;;;;;;5045045;28;20048;-59
2023/05/18 04:50:17;;;;;;;19.45;7.93;;;;;;;;;;5050020;28;20041;-58
2023/05/18 04:52:47;;;;;;;19.77;8.50;;;;;;;;;;5047094;28;20417;-58
2023/05/18 04:55:26;;;;;;;15.85;8.10;;;;;;;;;;5033802;28;20042;-58
2023/05/18 04:57:55;;;;;;;15.07;8.13;;;;;;;;;;5037119;28;20028;-58
2023/05/18 05:00:23;;;;;;;18.67;8.10;;;;;;;;;;5046439;28;20033;-59
2023/05/18 05:02:50;;;;;;;18.42;7.18;;;;;;;;;;5037058;28;20045;-59
2023/05/18 05:05:16;;;;;;;22.60;8.70;;;;;;;;;;5031961;28;20419;-58
2023/05/18 05:07:42;;;;;;;23.15;8.75;;;;;;;;;;5038766;28;20504;-57
2023/05/18 05:10:09;;;;;;;18.65;9.07;;;;;;;;;;5037159;28;20048;-57
2023/05/18 05:12:37;;;;;;;24.30;9.00;;;;;;;;;;5030571;28;20045;-58
2023/05/18 05:15:03;;;;;;;22.70;8.90;;;;;;;;;;5045793;28;20052;-57
2023/05/18 05:17:30;;;;;;;24.27;8.75;;;;;;;;;;5030097;28;20037;-58
2023/05/18 05:19:56;;;;;;;20.15;8.63;;;;;;;;;;5041060;28;20686;-58
2023/05/18 05:22:22;;;;;;;25.17;9.88;;;;;;;;;;5036722;28;20033;-57
2023/05/18 05:24:50;;;;;;;25.45;9.20;;;;;;;;;;5039051;28;20037;-58
2023/05/18 05:27:16;;;;;;;20.25;9.40;;;;;;;;;;5035197;28;20029;-58
2023/05/18 05:29:45;;;;;;;23.13;10.00;;;;;;;;;;5047512;28;20041;-58
2023/05/18 05:32:12;;;;;;;25.90;10.35;;;;;;;;;;5038578;28;20064;-57
2023/05/18 05:34:39;;;;;;;30.42;11.57;;;;;;;;;;5037491;28;20033;-58
2023/05/18 05:37:06;;;;;;;35.67;13.25;;;;;;;;;;5039708;28;20034;-57
2023/05/18 05:39:32;;;;;;;31.20;12.68;;;;;;;;;;5031858;28;20048;-58
2023/05/18 05:41:59;;;;;;;38.03;12.70;;;;;;;;;;5037322;28;20037;-58
2023/05/18 05:44:26;;;;;;;29.90;13.73;;;;;;;;;;5043906;28;20517;-57
2023/05/18 05:46:52;;;;;;;35.28;13.88;;;;;;;;;;5039195;28;20058;-58
2023/05/18 05:49:19;;;;;;;47.22;17.73;;;;;;;;;;5040145;28;20049;-58
2023/05/18 05:51:45;;;;;;;45.97;15.30;;;;;;;;;;5040966;28;20029;-58
2023/05/18 05:54:11;;;;;;;41.20;14.75;;;;;;;;;;5043555;28;20052;-57
2023/05/18 05:56:37;;;;;;;36.45;13.82;;;;;;;;;;5045601;28;20048;-57
2023/05/18 05:59:04;;;;;;;38.15;13.68;;;;;;;;;;5036361;28;20048;-57
2023/05/18 06:01:31;;;;;;;34.53;15.27;;;;;;;;;;5033118;28;20037;-57
2023/05/18 06:03:57;;;;;;;36.80;13.68;;;;;;;;;;5042134;28;20434;-57
2023/05/18 06:06:23;;;;;;;34.42;14.30;;;;;;;;;;5050127;28;20045;-57
2023/05/18 06:08:49;;;;;;;35.80;14.35;;;;;;;;;;5053563;28;20090;-58
2023/05/18 06:11:17;;;;;;;40.35;13.38;;;;;;;;;;5044424;28;20053;-57
2023/05/18 06:13:44;;;;;;;34.47;13.90;;;;;;;;;;5037895;28;20038;-58
2023/05/18 06:16:10;;;;;;;38.70;12.60;;;;;;;;;;5033085;28;20049;-57
2023/05/18 06:18:36;;;;;;;33.35;12.32;;;;;;;;;;5045012;28;20052;-57
2023/05/18 06:21:04;;;;;;;32.45;11.52;;;;;;;;;;5043429;28;20398;-57
2023/05/18 06:23:31;;;;;;;42.78;14.93;;;;;;;;;;5033206;28;20046;-58
2023/05/18 06:26:00;;;;;;;43.50;12.90;;;;;;;;;;5042109;28;20050;-58
2023/05/18 06:28:45;;;;;;;37.17;12.95;;;;;;;;;;5042945;28;20137;-57
2023/05/18 06:31:41;;;;;;;27.80;11.95;;;;;;;;;;5038255;28;20410;-58
2023/05/18 06:34:10;;;;;;;22.70;10.65;;;;;;;;;;5026003;28;20037;-58
2023/05/18 06:36:37;;;;;;;19.75;9.02;;;;;;;;;;5036839;28;20040;-57
2023/05/18 06:39:04;;;;;;;23.30;9.43;;;;;;;;;;5046671;28;20628;-58
2023/05/18 06:41:30;;;;;;;23.42;8.93;;;;;;;;;;5045864;28;20035;-58
2023/05/18 06:43:59;;;;;;;25.05;9.65;;;;;;;;;;5021275;28;20045;-58
2023/05/18 06:46:33;;;;;;;24.02;9.05;;;;;;;;;;5045550;28;20135;-58
2023/05/18 06:49:02;;;;;;;23.75;9.18;;;;;;;;;;5049913;28;20398;-58
2023/05/18 06:51:28;;;;;;;20.08;9.25;;;;;;;;;;5043662;28;20033;-57
2023/05/18 06:53:56;;;;;;;23.70;9.23;;;;;;;;;;5024473;28;20435;-56
2023/05/18 06:56:22;;;;;;;18.20;7.88;;;;;;;;;;5042164;28;20046;-58
2023/05/18 06:58:48;;;;;;;22.42;8.85;;;;;;;;;;5021771;28;20108;-57
2023/05/18 07:01:16;;;;;;;13.55;7.93;;;;;;;;;;5048334;28;20530;-58
2023/05/18 07:03:43;;;;;;;16.48;7.65;;;;;;;;;;5038700;28;20041;-58
2023/05/18 07:06:09;;;;;;;16.35;7.80;;;;;;;;;;5042405;28;20080;-58
2023/05/18 07:08:35;;;;;;;13.40;7.70;;;;;;;;;;5039941;28;20044;-58
2023/05/18 07:11:03;;;;;;;15.30;7.90;;;;;;;;;;5043855;28;20045;-57
2023/05/18 07:13:29;;;;;;;17.80;7.32;;;;;;;;;;5041971;28;20037;-58
2023/05/18 07:15:55;;;;;;;13.10;7.28;;;;;;;;;;5041057;28;20037;-58
2023/05/18 07:18:22;;;;;;;17.30;8.05;;;;;;;;;;5046065;28;20037;-58
2023/05/18 07:20:48;;;;;;;15.20;6.55;;;;;;;;;;5036312;28;20037;-57
2023/05/18 07:23:14;;;;;;;13.20;6.80;;;;;;;;;;5044847;28;20033;-57
2023/05/18 07:25:40;;;;;;;11.82;6.63;;;;;;;;;;5045923;28;20404;-57
2023/05/18 07:28:07;;;;;;;14.82;6.93;;;;;;;;;;5046028;28;20036;-58
2023/05/18 07:30:33;;;;;;;10.95;6.18;;;;;;;;;;5044651;28;20515;-57
2023/05/18 07:32:59;;;;;;;11.75;6.10;;;;;;;;;;5033475;28;20045;-58
2023/05/18 07:35:28;;;;;;;12.20;7.00;;;;;;;;;;5042508;28;20057;-58
2023/05/18 07:37:55;;;;;;;10.15;7.25;;;;;;;;;;5040060;28;20044;-58
2023/05/18 07:40:21;;;;;;;11.52;6.95;;;;;;;;;;5039959;28;20156;-58
2023/05/18 07:42:47;;;;;;;14.07;6.72;;;;;;;;;;5041729;28;20077;-58
2023/05/18 07:45:13;;;;;;;9.18;6.57;;;;;;;;;;5043249;28;20041;-58
2023/05/18 07:47:39;;;;;;;12.70;6.57;;;;;;;;;;5046767;28;20048;-58
2023/05/18 07:50:06;;;;;;;10.88;6.57;;;;;;;;;;5040182;28;20049;-58
2023/05/18 07:52:33;;;;;;;11.20;6.25;;;;;;;;;;5035961;28;20036;-57
2023/05/18 07:54:59;;;;;;;10.07;6.30;;;;;;;;;;5052918;28;20049;-57
2023/05/18 07:57:26;;;;;;;11.23;6.50;;;;;;;;;;5044459;28;20048;-57
2023/05/18 07:59:52;;;;;;;9.40;6.82;;;;;;;;;;5035448;28;20060;-56
2023/05/18 08:02:20;;;;;;;12.18;6.57;;;;;;;;;;5041485;28;20040;-58
2023/05/18 08:04:47;;;;;;;12.15;6.47;;;;;;;;;;5042083;28;20036;-57
2023/05/18 08:07:13;;;;;;;12.70;6.53;;;;;;;;;;5036417;28;20049;-57
2023/05/18 08:09:40;;;;;;;12.48;6.20;;;;;;;;;;5044656;28;20331;-59
2023/05/18 08:12:06;;;;;;;17.50;7.03;;;;;;;;;;5043166;28;20510;-56
2023/05/18 08:14:33;;;;;;;12.70;6.28;;;;;;;;;;5038263;28;20041;-56
2023/05/18 08:16:59;;;;;;;13.70;6.90;;;;;;;;;;5044510;28;20060;-57
2023/05/18 08:19:27;;;;;;;10.52;6.28;;;;;;;;;;5038000;28;20040;-57
2023/05/18 08:21:54;;;;;;;13.00;6.20;;;;;;;;;;5041626;28;20495;-57
2023/05/18 08:24:20;;;;;;;14.80;7.07;;;;;;;;;;5044904;28;20500;-57
2023/05/18 08:26:46;;;;;;;12.32;5.70;;;;;;;;;;5042747;28;20053;-58
2023/05/18 08:29:13;;;;;;;13.07;6.50;;;;;;;;;;5037545;28;20045;-57
2023/05/18 08:31:39;;;;;;;11.45;6.35;;;;;;;;;;5039432;28;20048;-58
2023/05/18 08:34:06;;;;;;;9.73;6.03;;;;;;;;;;5042561;28;20059;-58
2023/05/18 08:36:34;;;;;;;11.60;5.20;;;;;;;;;;5035089;28;20045;-58
2023/05/18 08:39:01;;;;;;;11.10;5.43;;;;;;;;;;5044489;28;20029;-58
2023/05/18 08:41:30;;;;;;;9.73;5.00;;;;;;;;;;5035314;28;20054;-57
2023/05/18 08:44:05;;;;;;;9.82;5.65;;;;;;;;;;5051135;28;20056;-58
2023/05/18 08:46:34;;;;;;;11.73;4.70;;;;;;;;;;5045487;28;20063;-58
2023/05/18 08:49:03;;;;;;;10.43;5.18;;;;;;;;;;5041330;28;20049;-57
2023/05/18 08:51:34;;;;;;;9.90;4.63;;;;;;;;;;5034616;28;20057;-58
2023/05/18 08:54:02;;;;;;;9.95;5.45;;;;;;;;;;5039159;28;20036;-58
2023/05/18 08:56:32;;;;;;;11.02;4.97;;;;;;;;;;5047827;28;20057;-58
2023/05/18 08:58:58;;;;;;;9.13;5.00;;;;;;;;;;5039609;28;20048;-59
2023/05/18 09:01:28;;;;;;;8.10;4.90;;;;;;;;;;5039316;28;20048;-59
2023/05/18 09:03:56;;;;;;;9.95;5.03;;;;;;;;;;5040359;28;20033;-59
2023/05/18 09:06:24;;;;;;;9.82;4.88;;;;;;;;;;5039160;28;20411;-59
2023/05/18 09:08:52;;;;;;;10.27;4.75;;;;;;;;;;5047386;28;20052;-59
2023/05/18 09:11:18;;;;;;;10.98;4.65;;;;;;;;;;5051303;28;20047;-59
2023/05/18 09:13:45;;;;;;;8.10;4.70;;;;;;;;;;5042234;28;20439;-59
2023/05/18 09:16:11;;;;;;;9.27;5.05;;;;;;;;;;5039782;28;20040;-58
2023/05/18 09:18:37;;;;;;;9.95;4.57;;;;;;;;;;5031336;28;20040;-54
2023/05/18 09:21:03;;;;;;;11.95;5.40;;;;;;;;;;5051362;28;20029;-59
2023/05/18 09:23:30;;;;;;;11.05;4.90;;;;;;;;;;5050173;28;20048;-59
2023/05/18 09:25:58;;;;;;;10.80;4.80;;;;;;;;;;5042485;28;20454;-58
2023/05/18 09:28:34;;;;;;;9.02;4.75;;;;;;;;;;5047452;28;20049;-58
2023/05/18 09:31:00;;;;;;;10.02;5.07;;;;;;;;;;5041953;28;20552;-58
2023/05/18 09:33:32;;;;;;;10.63;4.78;;;;;;;;;;5035576;28;20037;-57
2023/05/18 09:35:59;;;;;;;11.15;4.28;;;;;;;;;;5042963;28;20033;-57
2023/05/18 09:38:27;;;;;;;8.60;4.20;;;;;;;;;;5042243;28;20037;-57
2023/05/18 09:40:53;;;;;;;10.70;4.53;;;;;;;;;;5050538;28;20044;-58
2023/05/18 09:43:20;;;;;;;11.75;4.53;;;;;;;;;;5042609;28;20045;-58
2023/05/18 09:45:48;;;;;;;11.23;4.25;;;;;;;;;;5039300;28;20025;-58
2023/05/18 09:48:15;;;;;;;7.70;4.07;;;;;;;;;;5046132;28;20048;-58
2023/05/18 09:50:44;;;;;;;10.52;4.22;;;;;;;;;;5049420;28;20048;-57
2023/05/18 09:53:13;;;;;;;8.70;4.10;;;;;;;;;;5049883;28;20044;-57
2023/05/18 09:55:48;;;;;;;8.07;4.10;;;;;;;;;;5030953;28;20419;-57
2023/05/18 09:58:16;;;;;;;8.75;4.10;;;;;;;;;;5048824;28;20033;-57
2023/05/18 10:00:55;;;;;;;8.05;4.10;;;;;;;;;;5044105;28;20037;-59
2023/05/18 10:03:22;;;;;;;;;;;;;;;;;;5033610;28;20406;-57
2023/05/18 10:05:50;;;;;;;8.57;4.13;;;;;;;;;;5038417;28;19913;-58
2023/05/18 10:08:17;;;;;;;9.90;4.15;;;;;;;;;;5030907;28;20038;-58
2023/05/18 10:10:45;;;;;;;8.90;3.63;;;;;;;;;;5037453;28;20041;-59
2023/05/18 10:13:16;;;;;;;7.90;4.28;;;;;;;;;;5050903;28;20044;-59
2023/05/18 10:15:52;;;;;;;8.52;3.75;;;;;;;;;;5049570;28;20052;-58
2023/05/18 10:18:28;;;;;;;6.28;3.22;;;;;;;;;;5039819;28;20049;-58
2023/05/18 10:20:57;;;;;;;10.48;3.30;;;;;;;;;;5041371;28;20052;-56
2023/05/18 10:23:27;;;;;;;13.95;4.15;;;;;;;;;;5043148;28;20040;-57
2023/05/18 10:25:53;;;;;;;9.20;3.42;;;;;;;;;;5030462;28;20048;-58
2023/05/18 10:28:27;;;;;;;7.65;3.70;;;;;;;;;;5030497;28;20519;-58
2023/05/18 10:30:55;;;;;;;11.13;3.80;;;;;;;;;;5041112;28;20048;-58
2023/05/18 10:33:23;;;;;;;8.57;3.60;;;;;;;;;;5042673;28;20391;-58
2023/05/18 10:35:51;;;;;;;7.00;4.00;;;;;;;;;;5034132;28;20048;-58
2023/05/18 10:38:22;;;;;;;10.52;3.80;;;;;;;;;;5043077;28;20029;-58
2023/05/18 10:40:54;;;;;;;7.78;3.72;;;;;;;;;;5029995;28;20038;-57
2023/05/18 10:43:26;;;;;;;11.90;4.10;;;;;;;;;;5044030;28;20037;-58
2023/05/18 10:45:58;;;;;;;6.85;4.10;;;;;;;;;;5050208;28;20495;-58
2023/05/18 10:48:25;;;;;;;10.77;4.10;;;;;;;;;;5050790;28;20490;-58
2023/05/18 10:50:53;;;;;;;9.07;3.92;;;;;;;;;;5038609;28;20057;-60
2023/05/18 10:53:25;;;;;;;10.27;4.13;;;;;;;;;;5044611;28;20033;-57
2023/05/18 10:55:52;;;;;;;8.48;3.40;;;;;;;;;;5044694;28;20052;-58
2023/05/18 10:58:21;;;;;;;13.35;3.90;;;;;;;;;;5042686;28;20045;-57
2023/05/18 11:00:50;;;;;;;10.35;3.80;;;;;;;;;;5047774;28;20045;-58
2023/05/18 11:03:18;;;;;;;9.45;4.10;;;;;;;;;;5044105;28;20037;-58
2023/05/18 11:05:51;;;;;;;9.07;3.80;;;;;;;;;;5033940;28;20072;-58
2023/05/18 11:08:25;;;;;;;8.75;3.58;;;;;;;;;;5038341;28;20037;-58
2023/05/18 11:11:08;;;;;;;8.88;3.80;;;;;;;;;;5048529;28;20036;-58
2023/05/18 11:13:37;;;;;;;11.77;4.00;;;;;;;;;;5035442;28;20041;-59
2023/05/18 11:16:04;;;;;;;9.55;3.78;;;;;;;;;;5041111;28;20045;-58
2023/05/18 11:18:38;;;;;;;8.60;3.83;;;;;;;;;;5034189;28;20033;-58
2023/05/18 11:21:19;;;;;;;7.85;3.60;;;;;;;;;;5041980;28;20037;-58
2023/05/18 11:24:17;;;;;;;8.88;3.63;;;;;;;;;;5043736;28;20037;-58
2023/05/18 11:27:08;;;;;;;11.88;3.65;;;;;;;;;;5042222;28;20049;-58
2023/05/18 11:29:41;;;;;;;10.45;3.75;;;;;;;;;;5036918;28;20049;-59
2023/05/18 11:32:30;;;;;;;10.23;4.13;;;;;;;;;;5042964;28;20164;-59
2023/05/18 11:34:58;;;;;;;12.23;3.90;;;;;;;;;;5042615;28;20049;-58
2023/05/18 11:37:36;;;;;;;10.13;3.50;;;;;;;;;;5042437;28;20041;-58
2023/05/18 11:40:08;;;;;;;6.25;3.22;;;;;;;;;;5042309;28;20037;-58
2023/05/18 11:42:34;;;;;;;10.23;3.58;;;;;;;;;;5043671;28;20037;-57
2023/05/18 11:45:07;;;;;;;15.75;8.32;;;;;;;;;;5041982;28;20385;-58
2023/05/18 11:47:35;;;;;;;14.25;4.68;;;;;;;;;;5046107;28;20403;-58
2023/05/18 11:50:05;;;;;;;8.02;3.42;;;;;;;;;;5044616;28;20045;-58
2023/05/18 11:52:31;;;;;;;8.77;3.38;;;;;;;;;;5049735;28;20048;-58
2023/05/18 11:54:59;;;;;;;9.95;3.97;;;;;;;;;;5048908;28;20052;-59
2023/05/18 11:57:26;;;;;;;9.15;3.22;;;;;;;;;;5041381;28;20411;-58
2023/05/18 11:59:57;;;;;;;13.18;4.65;;;;;;;;;;5031875;28;20500;-57
2023/05/18 12:02:30;;;;;;;9.60;3.38;;;;;;;;;;5040537;28;20049;-60
2023/05/18 12:04:59;;;;;;;10.98;3.80;;;;;;;;;;5046406;28;20053;-58
2023/05/18 12:07:29;;;;;;;6.35;2.95;;;;;;;;;;5040562;28;20060;-58
2023/05/18 12:10:00;;;;;;;13.70;4.03;;;;;;;;;;5039154;28;20068;-58
2023/05/18 12:12:27;;;;;;;8.43;3.78;;;;;;;;;;5033184;28;20364;-58
2023/05/18 12:14:57;;;;;;;12.13;6.10;;;;;;;;;;5032480;28;20040;-58
2023/05/18 12:17:36;;;;;;;9.13;3.47;;;;;;;;;;5032805;28;20042;-58
2023/05/18 12:20:03;;;;;;;11.98;3.60;;;;;;;;;;5047980;28;20053;-58
2023/05/18 12:22:29;;;;;;;8.52;3.10;;;;;;;;;;5041580;28;20377;-59
2023/05/18 12:24:55;;;;;;;7.65;3.50;;;;;;;;;;5041347;28;20045;-59
2023/05/18 12:27:21;;;;;;;9.10;3.50;;;;;;;;;;5032853;28;20040;-59
2023/05/18 12:29:48;;;;;;;8.35;3.63;;;;;;;;;;5040030;28;20041;-59
2023/05/18 12:32:15;;;;;;;13.75;3.55;;;;;;;;;;5041234;28;20033;-59
2023/05/18 12:34:43;;;;;;;11.98;3.42;;;;;;;;;;5039778;28;20041;-58
2023/05/18 12:37:09;;;;;;;10.70;3.92;;;;;;;;;;5047301;28;20033;-59
2023/05/18 12:39:36;;;;;;;9.45;4.65;;;;;;;;;;5032701;28;20530;-58
2023/05/18 12:42:13;;;;;;;9.25;4.18;;;;;;;;;;5041412;28;20041;-59
2023/05/18 12:44:42;;;;;;;10.38;3.67;;;;;;;;;;5043559;28;20039;-58
2023/05/18 12:47:12;;;;;;;8.88;3.55;;;;;;;;;;5048920;28;20033;-59
2023/05/18 12:49:42;;;;;;;7.40;3.40;;;;;;;;;;5046706;28;20511;-59
2023/05/18 12:52:13;;;;;;;8.82;3.42;;;;;;;;;;5046132;28;20419;-58
2023/05/18 12:54:49;;;;;;;8.88;3.20;;;;;;;;;;5048033;28;20093;-59
2023/05/18 12:57:15;;;;;;;11.45;3.35;;;;;;;;;;5050113;28;20033;-59
2023/05/18 12:59:49;;;;;;;9.55;4.03;;;;;;;;;;5039800;28;20041;-59
2023/05/18 13:02:32;;;;;;;10.45;4.40;;;;;;;;;;5040594;28;20048;-58
2023/05/18 13:05:24;;;;;;;10.73;4.40;;;;;;;;;;5031708;28;20041;-59
2023/05/18 13:07:50;;;;;;;10.43;4.10;;;;;;;;;;5043323;28;20052;-59
2023/05/18 13:10:18;;;;;;;8.40;3.85;;;;;;;;;;5043552;28;20045;-59
2023/05/18 13:12:49;;;;;;;11.00;4.53;;;;;;;;;;5035420;28;20049;-58
2023/05/18 13:15:21;;;;;;;9.93;3.85;;;;;;;;;;5040086;28;20503;-59
2023/05/18 13:17:58;;;;;;;11.75;3.88;;;;;;;;;;5042317;28;20050;-59
2023/05/18 13:20:44;;;;;;;10.95;4.05;;;;;;;;;;5043386;28;20037;-58
2023/05/18 13:23:12;;;;;;;14.15;5.32;;;;;;;;;;5032716;28;20041;-59
2023/05/18 13:25:40;;;;;;;8.50;4.32;;;;;;;;;;5041860;28;20042;-58
2023/05/18 13:28:09;;;;;;;11.88;4.00;;;;;;;;;;5037581;28;20049;-59
2023/05/18 13:30:35;;;;;;;;;;;;;;;;;;5030640;28;20408;-59
2023/05/18 13:33:02;;;;;;;10.43;4.10;;;;;;;;;;5040314;28;20031;-59
2023/05/18 13:35:28;;;;;;;11.07;4.07;;;;;;;;;;5040119;28;20502;-59
2023/05/18 13:37:54;;;;;;;35.35;16.10;;;;;;;;;;5037980;28;20050;-59
2023/05/18 13:40:22;;;;;;;13.52;4.95;;;;;;;;;;5038250;28;20041;-59
2023/05/18 13:42:49;;;;;;;13.95;4.43;;;;;;;;;;5051542;28;20391;-59
2023/05/18 13:45:16;;;;;;;9.77;4.28;;;;;;;;;;5040462;28;20045;-58
2023/05/18 13:47:44;;;;;;;6.88;3.70;;;;;;;;;;5045104;28;20040;-59
2023/05/18 13:50:10;;;;;;;13.03;4.10;;;;;;;;;;5040912;28;20408;-59
2023/05/18 13:52:36;;;;;;;8.60;3.63;;;;;;;;;;5035371;28;20045;-60
2023/05/18 13:55:03;;;;;;;9.50;4.20;;;;;;;;;;5050223;28;20052;-59
2023/05/18 13:57:31;;;;;;;11.32;4.00;;;;;;;;;;5038513;28;20049;-58
2023/05/18 13:59:58;;;;;;;8.45;4.15;;;;;;;;;;5037794;28;20399;-59
2023/05/18 14:02:25;;;;;;;12.13;4.63;;;;;;;;;;5035218;28;20045;-58
2023/05/18 14:04:51;;;;;;;12.55;4.18;;;;;;;;;;5042834;28;20037;-60
2023/05/18 14:07:17;;;;;;;9.93;4.60;;;;;;;;;;5030989;28;20037;-58
2023/05/18 14:09:44;;;;;;;12.93;4.15;;;;;;;;;;5038486;28;20045;-59
2023/05/18 14:12:11;;;;;;;9.00;3.70;;;;;;;;;;5040196;28;20045;-59
2023/05/18 14:14:39;;;;;;;12.02;3.40;;;;;;;;;;5039704;28;20048;-59
2023/05/18 14:17:06;;;;;;;15.63;4.03;;;;;;;;;;5042289;28;20521;-58
2023/05/18 14:19:32;;;;;;;13.57;4.93;;;;;;;;;;5034496;28;20091;-59
2023/05/18 14:21:58;;;;;;;16.35;6.13;;;;;;;;;;5049438;28;20049;-57
2023/05/18 14:24:24;;;;;;;11.20;4.45;;;;;;;;;;5047527;28;20041;-59
2023/05/18 14:26:52;;;;;;;15.50;4.85;;;;;;;;;;5035077;28;20045;-58
2023/05/18 14:29:19;;;;;;;16.42;5.70;;;;;;;;;;5038345;28;20495;-58
2023/05/18 14:31:45;;;;;;;17.08;6.60;;;;;;;;;;5045233;28;20041;-59
2023/05/18 14:34:11;;;;;;;15.23;5.45;;;;;;;;;;5043414;28;20056;-59
2023/05/18 14:36:37;;;;;;;13.57;5.82;;;;;;;;;;5041103;28;20495;-61
2023/05/18 14:39:04;;;;;;;15.35;5.57;;;;;;;;;;5041393;28;20040;-59
2023/05/18 14:41:30;;;;;;;16.35;4.97;;;;;;;;;;5036369;28;20056;-59
2023/05/18 14:43:56;;;;;;;14.75;5.15;;;;;;;;;;5043015;28;20045;-59